Time;durP1;ratioP1;P1;durP2;ratioP2;P2;SDS_P1;SDS_P2;PMS_P1;PMS_P2;Temp;Humidity;BMP_temperature;BMP_pressure;BME280_temperature;BME280_humidity;BME280_pressure;Samples;Min_cycle;Max_cycle;Signal;HPM_P1;HPM_P2
2022/10/07 00:01:52;;;;;;;5.00;2.70;;;10.30;99.90;;;;;;5048291;27;20393;-57
2022/10/07 00:04:18;;;;;;;6.68;3.08;;;10.30;99.90;;;;;;5035357;27;20042;-55
2022/10/07 00:06:44;;;;;;;4.53;2.83;;;10.20;99.90;;;;;;5067909;27;20492;-58
2022/10/07 00:09:10;;;;;;;5.47;2.88;;;10.20;99.90;;;;;;5093192;27;20105;-58
2022/10/07 00:11:36;;;;;;;7.18;2.75;;;10.20;99.90;;;;;;5041763;27;20082;-56
2022/10/07 00:14:06;;;;;;;6.15;2.60;;;10.20;99.90;;;;;;5029150;27;20572;-57
2022/10/07 00:16:40;;;;;;;6.32;3.00;;;10.20;99.90;;;;;;5058490;27;20076;-56
2022/10/07 00:19:09;;;;;;;3.53;2.55;;;10.20;99.90;;;;;;5028568;27;20021;-58
2022/10/07 00:21:37;;;;;;;6.82;2.80;;;10.20;99.90;;;;;;5083284;27;20015;-58
2022/10/07 00:24:04;;;;;;;4.88;2.90;;;10.10;99.90;;;;;;5028940;27;20137;-52
2022/10/07 00:26:31;;;;;;;7.78;2.90;;;10.10;99.90;;;;;;5073001;27;20080;-57
2022/10/07 00:28:57;;;;;;;9.57;3.28;;;10.10;99.90;;;;;;5023294;27;20047;-57
2022/10/07 00:31:29;;;;;;;4.57;2.58;;;10.10;99.90;;;;;;5060015;27;20432;-56
2022/10/07 00:33:55;;;;;;;8.13;3.28;;;10.10;99.90;;;;;;5028826;27;20059;-56
2022/10/07 00:36:28;;;;;;;4.57;2.75;;;10.00;99.90;;;;;;5054102;27;20032;-59
2022/10/07 00:38:59;;;;;;;4.78;2.78;;;10.00;99.90;;;;;;5033835;27;20078;-56
2022/10/07 00:41:38;;;;;;;6.35;2.97;;;10.00;99.90;;;;;;5044745;27;20726;-55
2022/10/07 00:44:37;;;;;;;3.88;2.75;;;10.00;99.90;;;;;;5030679;27;20032;-55
2022/10/07 00:47:11;;;;;;;6.00;2.72;;;10.00;99.90;;;;;;5049298;27;20128;-58
2022/10/07 00:49:43;;;;;;;5.65;2.97;;;9.90;99.90;;;;;;5022136;28;20021;-56
2022/10/07 00:52:10;;;;;;;6.03;3.00;;;9.90;99.90;;;;;;5056007;27;20011;-56
2022/10/07 00:54:37;;;;;;;6.38;2.75;;;9.90;99.90;;;;;;5020521;28;20025;-55
2022/10/07 00:57:03;;;;;;;5.85;2.85;;;9.90;99.90;;;;;;5085836;27;20019;-57
2022/10/07 00:59:29;;;;;;;6.43;3.40;;;9.90;99.90;;;;;;5020888;28;20018;-55
2022/10/07 01:01:54;;;;;;;7.63;3.05;;;9.80;99.90;;;;;;5083898;27;20118;-56
2022/10/07 01:04:20;;;;;;;8.13;2.90;;;9.80;99.90;;;;;;5021455;28;20049;-58
2022/10/07 01:06:45;;;;;;;6.95;3.17;;;9.80;99.90;;;;;;5039292;27;20057;-58
2022/10/07 01:09:12;;;;;;;6.47;2.88;;;9.80;99.90;;;;;;5019695;28;20108;-58
2022/10/07 01:11:55;;;;;;;7.22;3.00;;;9.80;99.90;;;;;;5033232;27;20365;-58
2022/10/07 01:14:37;;;;;;;7.85;3.08;;;9.80;99.90;;;;;;5040639;27;20357;-57
2022/10/07 01:17:22;;;;;;;4.87;2.63;;;9.80;99.90;;;;;;5068488;27;20515;-56
2022/10/07 01:19:47;;;;;;;6.32;3.53;;;9.80;99.90;;;;;;5074599;27;20093;-57
2022/10/07 01:22:26;;;;;;;6.47;3.35;;;9.70;99.90;;;;;;5063939;27;20190;-56
2022/10/07 01:25:31;;;;;;;6.88;3.22;;;9.70;99.90;;;;;;5073457;27;20050;-57
2022/10/07 01:28:20;;;;;;;6.90;3.20;;;9.70;99.90;;;;;;5067505;27;20614;-56
2022/10/07 01:30:53;;;;;;;6.38;3.05;;;9.70;99.90;;;;;;5047887;27;20068;-56
2022/10/07 01:33:26;;;;;;;5.88;3.10;;;9.60;99.90;;;;;;5060313;27;21407;-57
2022/10/07 01:35:53;;;;;;;;;;;9.60;99.90;;;;;;5007063;28;20037;-57
2022/10/07 01:38:22;;;;;;;4.65;2.70;;;9.60;99.90;;;;;;5088318;27;19913;-54
2022/10/07 01:40:54;;;;;;;5.90;2.67;;;9.60;99.90;;;;;;5081582;27;20029;-54
2022/10/07 01:43:21;;;;;;;4.70;2.65;;;9.50;99.90;;;;;;5044800;28;20037;-57
2022/10/07 01:45:47;;;;;;;4.93;2.63;;;9.50;99.90;;;;;;5082339;27;20389;-58
2022/10/07 01:48:14;;;;;;;5.75;3.13;;;9.50;99.90;;;;;;5067378;28;20023;-56
2022/10/07 01:50:40;;;;;;;5.70;2.92;;;9.50;99.90;;;;;;5031199;27;20029;-56
2022/10/07 01:53:11;;;;;;;5.40;3.00;;;9.50;99.90;;;;;;5059496;28;20030;-57
2022/10/07 01:55:54;;;;;;;5.85;2.72;;;9.50;99.90;;;;;;5054519;27;20128;-56
2022/10/07 01:58:28;;;;;;;;;;;9.50;99.90;;;;;;5042068;28;20053;-58
2022/10/07 02:01:18;;;;;;;6.50;2.78;;;9.50;99.90;;;;;;5061529;28;19997;-54
2022/10/07 02:04:10;;;;;;;6.38;2.75;;;9.50;99.90;;;;;;5068784;27;20058;-52
2022/10/07 02:06:57;;;;;;;6.28;2.80;;;9.40;99.90;;;;;;5019901;28;20049;-57
2022/10/07 02:09:27;;;;;;;7.72;2.90;;;9.40;99.90;;;;;;5085117;28;20060;-54
2022/10/07 02:12:03;;;;;;;5.55;2.55;;;9.40;99.90;;;;;;5013300;28;20026;-52
2022/10/07 02:14:37;;;;;;;9.52;3.00;;;9.40;99.90;;;;;;5082695;28;20038;-54
2022/10/07 02:17:13;;;;;;;6.85;2.80;;;9.40;99.90;;;;;;5007683;28;20029;-54
2022/10/07 02:19:44;;;;;;;5.55;3.20;;;9.40;99.90;;;;;;5041542;28;20025;-56
2022/10/07 02:22:11;;;;;;;6.10;3.13;;;9.40;99.90;;;;;;5019905;28;20029;-55
2022/10/07 02:24:39;;;;;;;7.07;2.80;;;9.40;99.90;;;;;;5077285;27;20027;-55
2022/10/07 02:27:21;;;;;;;8.70;2.95;;;9.40;99.90;;;;;;5093526;27;20533;-57
2022/10/07 02:29:50;;;;;;;6.80;3.17;;;9.40;99.90;;;;;;5073765;27;20035;-55
2022/10/07 02:32:20;;;;;;;5.03;2.72;;;9.40;99.90;;;;;;5094407;27;20268;-55
2022/10/07 02:34:50;;;;;;;7.07;3.15;;;9.40;99.90;;;;;;5043947;27;20026;-54
2022/10/07 02:37:25;;;;;;;5.43;2.72;;;9.40;99.90;;;;;;5084083;27;20029;-58
2022/10/07 02:39:52;;;;;;;9.75;3.17;;;9.40;99.90;;;;;;5044538;27;20311;-57
2022/10/07 02:42:24;;;;;;;7.55;2.95;;;9.40;99.90;;;;;;5082562;27;20026;-58
2022/10/07 02:45:05;;;;;;;9.40;3.37;;;9.40;99.90;;;;;;5063240;27;20027;-58
2022/10/07 02:47:39;;;;;;;8.88;2.88;;;9.40;99.90;;;;;;5076768;27;20272;-58
2022/10/07 02:50:09;;;;;;;9.13;2.67;;;9.40;99.90;;;;;;5066868;27;20027;-57
2022/10/07 02:52:37;;;;;;;7.15;2.88;;;9.40;99.90;;;;;;5105243;27;20019;-56
2022/10/07 02:55:07;;;;;;;9.40;2.80;;;9.40;99.90;;;;;;5096735;27;20514;-57
2022/10/07 02:57:36;;;;;;;7.55;2.90;;;9.30;99.90;;;;;;5077646;27;20021;-56
2022/10/07 03:00:05;;;;;;;9.90;2.90;;;9.30;99.90;;;;;;5046511;27;20072;-54
2022/10/07 03:02:36;;;;;;;4.43;2.50;;;9.30;99.90;;;;;;5071886;27;20392;-58
2022/10/07 03:05:02;;;;;;;9.23;2.70;;;9.30;99.90;;;;;;5030330;27;20132;-53
2022/10/07 03:07:27;;;;;;;9.35;2.88;;;9.30;99.90;;;;;;5062066;27;20029;-56
2022/10/07 03:09:53;;;;;;;4.28;2.75;;;9.30;99.90;;;;;;5029543;27;20064;-56
2022/10/07 03:12:19;;;;;;;6.88;2.67;;;9.30;99.90;;;;;;5103676;27;20019;-58
2022/10/07 03:14:47;;;;;;;6.40;2.70;;;9.30;99.90;;;;;;5050368;27;20022;-58
2022/10/07 03:17:13;;;;;;;8.80;2.95;;;9.30;99.90;;;;;;5068017;27;20027;-58
2022/10/07 03:19:39;;;;;;;6.03;2.58;;;9.20;99.90;;;;;;5054140;27;20045;-57
2022/10/07 03:22:04;;;;;;;6.68;2.70;;;9.20;99.90;;;;;;5093288;27;20121;-54
2022/10/07 03:24:30;;;;;;;6.97;2.80;;;9.20;99.90;;;;;;5063197;27;20571;-56
2022/10/07 03:26:55;;;;;;;10.90;2.88;;;9.20;99.90;;;;;;5077587;27;20041;-57
2022/10/07 03:29:21;;;;;;;8.05;3.08;;;9.20;99.90;;;;;;5073523;27;20021;-55
2022/10/07 03:31:47;;;;;;;6.43;2.92;;;9.20;99.90;;;;;;5069406;27;20025;-56
2022/10/07 03:34:12;;;;;;;5.30;2.45;;;9.20;99.90;;;;;;5076981;27;20030;-55
2022/10/07 03:36:38;;;;;;;8.07;3.30;;;9.20;99.90;;;;;;5065537;27;20034;-57
2022/10/07 03:39:03;;;;;;;6.00;2.55;;;9.20;99.90;;;;;;5074836;27;20105;-56
2022/10/07 03:41:29;;;;;;;8.40;2.70;;;9.20;99.90;;;;;;5050539;27;20126;-57
2022/10/07 03:43:57;;;;;;;8.80;3.15;;;9.20;99.90;;;;;;5082750;27;20026;-56
2022/10/07 03:46:23;;;;;;;5.30;2.63;;;9.30;99.90;;;;;;5040369;27;20044;-56
2022/10/07 03:48:48;;;;;;;8.32;2.60;;;9.30;99.90;;;;;;5088123;27;20023;-56
2022/10/07 03:51:14;;;;;;;8.18;2.95;;;9.30;99.90;;;;;;5028779;27;20026;-56
2022/10/07 03:53:40;;;;;;;6.13;2.30;;;9.30;99.90;;;;;;5093132;27;20351;-57
2022/10/07 03:56:06;;;;;;;11.32;2.63;;;9.40;99.90;;;;;;5028739;27;20030;-56
2022/10/07 03:58:32;;;;;;;6.30;2.67;;;9.30;99.90;;;;;;5077202;27;20377;-58
2022/10/07 04:01:06;;;;;;;5.80;2.58;;;9.40;99.90;;;;;;5017512;27;20033;-57
2022/10/07 04:03:32;;;;;;;5.65;2.33;;;9.40;99.90;;;;;;5058354;27;20542;-56
2022/10/07 04:05:58;;;;;;;6.32;2.70;;;9.40;99.90;;;;;;5041211;27;20132;-56
2022/10/07 04:08:26;;;;;;;9.15;2.67;;;9.30;99.90;;;;;;5031285;27;20057;-57
2022/10/07 04:10:52;;;;;;;6.45;2.30;;;9.40;99.90;;;;;;5021619;27;20033;-56
2022/10/07 04:13:18;;;;;;;5.50;2.28;;;9.40;99.90;;;;;;5059396;27;20393;-58
2022/10/07 04:15:43;;;;;;;8.23;2.40;;;9.40;99.90;;;;;;5058192;27;20042;-58
2022/10/07 04:18:10;;;;;;;7.47;2.90;;;9.40;99.90;;;;;;5046174;27;20037;-57
2022/10/07 04:20:37;;;;;;;4.95;2.25;;;9.40;99.90;;;;;;5055164;27;20669;-54
2022/10/07 04:23:02;;;;;;;5.15;2.50;;;9.30;99.90;;;;;;5047392;27;20623;-54
2022/10/07 04:25:34;;;;;;;5.35;2.40;;;9.30;99.90;;;;;;5088781;27;20043;-54
2022/10/07 04:28:11;;;;;;;9.40;4.60;;;9.30;99.90;;;;;;5045014;27;20036;-54
2022/10/07 04:30:39;;;;;;;7.68;2.90;;;9.30;99.90;;;;;;5087025;27;20023;-53
2022/10/07 04:33:05;;;;;;;7.40;2.75;;;9.30;99.90;;;;;;5040792;27;20529;-56
2022/10/07 04:35:30;;;;;;;8.65;3.40;;;9.30;99.90;;;;;;5083387;27;20584;-57
2022/10/07 04:37:56;;;;;;;7.85;2.65;;;9.30;99.90;;;;;;5043807;27;20118;-55
2022/10/07 04:40:23;;;;;;;6.20;3.17;;;9.30;99.90;;;;;;5070248;27;20062;-55
2022/10/07 04:45:36;;;;;;;6.20;2.80;;;9.30;99.90;;;;;;5063956;27;20047;-56
2022/10/07 04:48:06;;;;;;;8.07;2.50;;;9.20;99.90;;;;;;5031025;27;20541;-56
2022/10/07 04:50:33;;;;;;;10.05;2.53;;;9.20;99.90;;;;;;5101850;27;20030;-56
2022/10/07 04:52:58;;;;;;;6.53;2.28;;;9.20;99.90;;;;;;5038224;27;20033;-56
2022/10/07 04:55:25;;;;;;;6.57;2.38;;;9.20;99.90;;;;;;5065602;27;20523;-53
2022/10/07 04:57:51;;;;;;;4.70;2.40;;;9.20;99.90;;;;;;5027793;27;20033;-52
2022/10/07 05:00:17;;;;;;;5.38;2.25;;;9.20;99.90;;;;;;5062452;27;20015;-52
2022/10/07 05:02:45;;;;;;;9.45;2.78;;;9.20;99.90;;;;;;5034866;27;20048;-52
2022/10/07 05:05:10;;;;;;;8.63;2.90;;;9.20;99.90;;;;;;5041676;27;20487;-49
2022/10/07 05:07:36;;;;;;;4.97;2.40;;;9.10;99.90;;;;;;5059610;27;20024;-58
2022/10/07 05:10:02;;;;;;;9.70;2.90;;;9.20;99.90;;;;;;5037074;27;20030;-55
2022/10/07 05:12:27;;;;;;;8.57;2.28;;;9.10;99.90;;;;;;5044501;27;20021;-56
2022/10/07 05:14:53;;;;;;;7.22;2.38;;;9.10;99.90;;;;;;5079982;27;20057;-58
2022/10/07 05:17:19;;;;;;;6.75;2.20;;;9.10;99.90;;;;;;5101698;27;20027;-57
2022/10/07 05:19:44;;;;;;;5.53;3.00;;;9.10;99.90;;;;;;5042475;27;20025;-55
2022/10/07 05:22:10;;;;;;;8.75;2.67;;;9.10;99.90;;;;;;5027999;27;20022;-56
2022/10/07 05:24:35;;;;;;;6.75;2.53;;;9.10;99.90;;;;;;5031951;27;20025;-58
2022/10/07 05:27:01;;;;;;;5.65;2.67;;;9.10;99.90;;;;;;5070538;27;20033;-59
2022/10/07 05:29:26;;;;;;;6.43;2.45;;;9.10;99.90;;;;;;5027770;27;20026;-58
2022/10/07 05:31:52;;;;;;;7.68;2.33;;;9.10;99.90;;;;;;5030450;28;20022;-55
2022/10/07 05:34:18;;;;;;;5.78;2.53;;;9.10;99.90;;;;;;5019350;28;20385;-57
2022/10/07 05:36:44;;;;;;;7.07;2.83;;;9.10;99.90;;;;;;5079021;27;20021;-57
2022/10/07 05:39:09;;;;;;;7.72;2.50;;;9.10;99.90;;;;;;5020542;28;20505;-56
2022/10/07 05:41:36;;;;;;;7.45;2.65;;;9.10;99.90;;;;;;5092736;28;20056;-54
2022/10/07 05:44:01;;;;;;;9.25;2.78;;;9.10;99.90;;;;;;5020806;28;20026;-55
2022/10/07 05:46:27;;;;;;;6.07;2.38;;;9.10;99.90;;;;;;5084764;28;20039;-57
2022/10/07 05:48:53;;;;;;;5.93;2.65;;;9.00;99.90;;;;;;5051508;28;20101;-57
2022/10/07 05:51:19;;;;;;;4.80;2.38;;;9.00;99.90;;;;;;5052002;28;20732;-58
2022/10/07 05:53:45;;;;;;;7.00;2.50;;;9.10;99.90;;;;;;5061274;28;20022;-59
2022/10/07 05:56:16;;;;;;;8.18;2.63;;;9.10;99.90;;;;;;5048562;28;20398;-55
2022/10/07 05:58:42;;;;;;;5.93;2.50;;;9.10;99.90;;;;;;5058251;28;20021;-57
2022/10/07 06:01:14;;;;;;;8.50;2.63;;;9.10;99.90;;;;;;5046283;28;20030;-56
2022/10/07 06:03:40;;;;;;;6.43;2.60;;;9.10;99.90;;;;;;5020130;28;20065;-56
2022/10/07 06:06:07;;;;;;;5.38;2.45;;;9.10;99.90;;;;;;5032417;27;20111;-53
2022/10/07 06:08:34;;;;;;;6.97;2.25;;;9.10;99.90;;;;;;5024037;27;20022;-56
2022/10/07 06:13:51;;;;;;;6.78;2.05;;;9.10;99.90;;;;;;5082342;27;20394;-55
2022/10/07 06:16:17;;;;;;;6.28;2.58;;;9.10;99.90;;;;;;5022235;27;20025;-57
2022/10/07 06:18:42;;;;;;;7.90;2.42;;;9.10;99.90;;;;;;5085776;27;20023;-56
2022/10/07 06:21:08;;;;;;;8.10;3.10;;;9.10;99.90;;;;;;5013484;27;20019;-55
2022/10/07 06:23:34;;;;;;;6.28;2.90;;;9.10;99.90;;;;;;5082731;27;20031;-57
2022/10/07 06:26:05;;;;;;;7.18;2.92;;;9.10;99.90;;;;;;5012641;27;20037;-56
2022/10/07 06:28:32;;;;;;;10.20;2.78;;;9.20;99.90;;;;;;5066607;27;20047;-54
2022/10/07 06:30:58;;;;;;;8.05;2.92;;;9.20;99.90;;;;;;5012825;27;20026;-51
2022/10/07 06:33:24;;;;;;;8.40;2.75;;;9.20;99.90;;;;;;5060525;27;20023;-55
2022/10/07 06:35:53;;;;;;;7.40;2.70;;;9.20;99.90;;;;;;5025154;27;20478;-56
2022/10/07 06:38:18;;;;;;;8.10;2.75;;;9.20;99.90;;;;;;5044492;27;20026;-57
2022/10/07 06:40:57;;;;;;;6.38;2.42;;;9.30;99.90;;;;;;5036116;27;20029;-54
2022/10/07 06:43:25;;;;;;;6.35;2.38;;;9.30;99.90;;;;;;5034831;27;20785;-55
2022/10/07 06:45:51;;;;;;;9.88;2.90;;;9.30;99.90;;;;;;5034459;27;20400;-57
2022/10/07 06:48:17;;;;;;;8.95;2.40;;;9.40;99.90;;;;;;5029727;27;20026;-53
2022/10/07 06:50:52;;;;;;;6.28;2.40;;;9.50;99.90;;;;;;5035923;27;20106;-56
2022/10/07 06:53:18;;;;;;;8.60;2.70;;;9.50;99.90;;;;;;5024956;27;20531;-55
2022/10/07 06:55:44;;;;;;;7.75;2.35;;;9.60;99.90;;;;;;5031829;27;20604;-56
2022/10/07 06:58:10;;;;;;;7.18;2.65;;;9.60;99.90;;;;;;5017013;27;20133;-59
2022/10/07 07:00:36;;;;;;;8.13;2.70;;;9.60;99.90;;;;;;5021224;27;20079;-56
2022/10/07 07:03:02;;;;;;;5.45;2.50;;;9.60;99.90;;;;;;5028976;27;20071;-54
2022/10/07 07:05:34;;;;;;;5.53;2.58;;;9.70;99.90;;;;;;5123768;27;20424;-59
2022/10/07 07:08:00;;;;;;;8.23;2.40;;;9.80;99.90;;;;;;5061949;27;20031;-55
2022/10/07 07:10:26;;;;;;;9.07;2.53;;;9.90;99.90;;;;;;5121108;27;20023;-56
2022/10/07 07:12:53;;;;;;;6.97;2.70;;;10.00;99.90;;;;;;5052424;27;20030;-55
2022/10/07 07:15:20;;;;;;;9.00;2.63;;;10.10;99.90;;;;;;5067922;27;20171;-54
2022/10/07 07:17:46;;;;;;;6.18;2.50;;;10.30;99.90;;;;;;5051400;27;20041;-54
2022/10/07 07:20:12;;;;;;;8.75;2.90;;;10.30;99.90;;;;;;5094994;27;20282;-58
2022/10/07 07:22:38;;;;;;;5.80;2.40;;;10.40;99.90;;;;;;5055897;27;20444;-58
2022/10/07 07:25:04;;;;;;;5.13;1.98;;;10.50;99.90;;;;;;5086991;27;20583;-57
2022/10/07 07:27:29;;;;;;;5.68;2.13;;;10.50;99.90;;;;;;5065465;27;20128;-58
2022/10/07 07:29:56;;;;;;;5.55;2.55;;;10.50;99.90;;;;;;5069892;27;20740;-55
2022/10/07 07:32:22;;;;;;;5.95;2.58;;;10.50;99.90;;;;;;5075406;27;20026;-54
2022/10/07 07:34:47;;;;;;;6.32;2.83;;;10.50;99.90;;;;;;5027966;27;20775;-55
2022/10/07 07:37:13;;;;;;;7.78;2.88;;;10.50;99.90;;;;;;5112174;27;20126;-57
2022/10/07 07:39:38;;;;;;;8.55;2.90;;;10.50;99.90;;;;;;5076813;27;20033;-55
2022/10/07 07:42:04;;;;;;;8.10;2.53;;;10.50;99.90;;;;;;5031021;27;20060;-58
2022/10/07 07:44:29;;;;;;;8.23;2.70;;;10.50;99.90;;;;;;5035081;27;20021;-56
2022/10/07 07:46:55;;;;;;;5.72;2.60;;;10.50;99.90;;;;;;5083102;27;20031;-54
2022/10/07 07:49:22;;;;;;;9.88;3.38;;;10.60;99.90;;;;;;5096106;27;20129;-58
2022/10/07 07:51:48;;;;;;;11.90;3.45;;;10.60;99.90;;;;;;5075432;27;20029;-55
2022/10/07 07:54:14;;;;;;;10.68;3.42;;;10.60;99.90;;;;;;5028818;27;20054;-57
2022/10/07 07:56:40;;;;;;;10.85;3.35;;;10.70;99.90;;;;;;5079530;27;20029;-58
2022/10/07 07:59:07;;;;;;;8.77;3.28;;;10.70;99.90;;;;;;5026732;27;20025;-58
2022/10/07 08:01:34;;;;;;;8.07;3.00;;;10.70;99.90;;;;;;5080194;27;20074;-57
2022/10/07 08:04:00;;;;;;;8.63;3.40;;;10.80;99.90;;;;;;5021065;28;20104;-54
2022/10/07 08:06:27;;;;;;;8.00;3.00;;;10.80;99.90;;;;;;5086444;27;20031;-55
2022/10/07 08:08:58;;;;;;;7.32;3.58;;;10.90;99.90;;;;;;5092120;27;20030;-54
2022/10/07 08:11:24;;;;;;;8.18;3.03;;;10.90;99.90;;;;;;5059042;27;20064;-56
2022/10/07 08:13:50;;;;;;;6.35;2.65;;;11.00;99.90;;;;;;5126091;27;20030;-56
2022/10/07 08:16:18;;;;;;;9.00;2.97;;;11.00;99.90;;;;;;5083219;27;20054;-56
2022/10/07 08:18:46;;;;;;;7.95;3.00;;;11.00;99.90;;;;;;5028492;27;20507;-56
2022/10/07 08:21:13;;;;;;;9.65;2.95;;;11.10;99.90;;;;;;5067390;27;20034;-56
2022/10/07 08:23:39;;;;;;;9.80;2.88;;;11.10;99.90;;;;;;5038688;27;20022;-57
2022/10/07 08:26:06;;;;;;;6.03;2.70;;;11.10;99.90;;;;;;5055755;27;20561;-56
2022/10/07 08:28:32;;;;;;;8.00;2.38;;;11.20;99.90;;;;;;5050092;27;20800;-57
2022/10/07 08:31:10;;;;;;;7.80;2.85;;;11.30;99.90;;;;;;5050855;27;20029;-55
2022/10/07 08:33:41;;;;;;;6.88;2.97;;;11.40;99.90;;;;;;5088950;27;20117;-56
2022/10/07 08:36:10;;;;;;;7.63;2.47;;;11.50;99.90;;;;;;5104290;27;20351;-57
2022/10/07 08:38:38;;;;;;;8.00;2.60;;;11.50;99.90;;;;;;5082936;27;20100;-54
2022/10/07 08:41:14;;;;;;;10.27;3.35;;;11.50;99.90;;;;;;5097687;27;20037;-54
2022/10/07 08:43:45;;;;;;;10.10;2.65;;;11.50;99.90;;;;;;5026904;27;20030;-59
2022/10/07 08:46:18;;;;;;;7.05;2.30;;;11.50;99.90;;;;;;5028711;27;20643;-57
2022/10/07 08:48:57;;;;;;;6.18;2.22;;;11.60;99.90;;;;;;5072117;27;20357;-57
2022/10/07 08:51:37;;;;;;;6.03;2.88;;;11.70;99.90;;;;;;5029204;27;20025;-53
2022/10/07 08:54:03;;;;;;;6.93;1.92;;;11.80;99.90;;;;;;5065666;27;20032;-57
2022/10/07 08:56:31;;;;;;;4.72;1.70;;;12.00;99.90;;;;;;5035177;27;20477;-55
2022/10/07 08:59:04;;;;;;;7.15;2.30;;;12.30;99.90;;;;;;5056423;27;20039;-56
2022/10/07 09:01:45;;;;;;;6.47;2.33;;;12.50;99.90;;;;;;5078632;27;20089;-57
2022/10/07 09:04:44;;;;;;;6.38;1.80;;;12.70;99.90;;;;;;5060035;27;20096;-58
2022/10/07 09:07:44;;;;;;;8.98;2.35;;;13.00;99.90;;;;;;5101656;27;20037;-57
2022/10/07 09:10:27;;;;;;;10.73;2.33;;;13.20;99.90;;;;;;5002256;28;20056;-55
2022/10/07 09:13:10;;;;;;;8.48;2.15;;;13.40;99.90;;;;;;5057713;27;20035;-57
2022/10/07 09:15:43;;;;;;;7.18;2.20;;;13.50;99.90;;;;;;5027588;27;20037;-58
2022/10/07 09:18:23;;;;;;;8.73;2.20;;;13.60;99.90;;;;;;5068251;27;20398;-58
2022/10/07 09:20:52;;;;;;;6.05;1.98;;;13.70;99.90;;;;;;5026215;27;20033;-53
2022/10/07 09:23:22;;;;;;;6.32;2.20;;;13.80;99.90;;;;;;5068512;27;20486;-56
2022/10/07 09:25:48;;;;;;;8.48;2.03;;;14.00;99.90;;;;;;5034676;27;20033;-57
2022/10/07 09:28:16;;;;;;;5.50;1.60;;;14.10;99.90;;;;;;5056486;27;20035;-55
2022/10/07 09:30:42;;;;;;;5.68;2.10;;;14.20;99.90;;;;;;5045828;27;20481;-58
2022/10/07 09:33:18;;;;;;;7.85;2.25;;;14.30;99.90;;;;;;5044481;27;20027;-59
2022/10/07 09:36:04;;;;;;;7.28;2.10;;;14.40;99.90;;;;;;5050733;27;20434;-57
2022/10/07 09:38:37;;;;;;;6.88;2.17;;;14.40;99.90;;;;;;5052913;28;20031;-58
2022/10/07 09:41:14;;;;;;;6.63;1.70;;;14.50;99.90;;;;;;5044129;27;20056;-56
2022/10/07 09:43:53;;;;;;;9.65;2.00;;;14.50;99.90;;;;;;5053754;28;20031;-55
2022/10/07 09:46:40;;;;;;;6.43;2.08;;;14.50;99.90;;;;;;5040578;27;20041;-59
2022/10/07 09:49:20;;;;;;;7.75;2.05;;;14.60;99.90;;;;;;5064058;28;20033;-60
2022/10/07 09:52:01;;;;;;;5.05;2.03;;;14.70;99.90;;;;;;5030064;27;20111;-58
2022/10/07 09:54:29;;;;;;;7.53;2.20;;;14.80;99.90;;;;;;5072993;28;20060;-60
2022/10/07 09:56:58;;;;;;;4.90;1.42;;;14.90;99.90;;;;;;5030227;27;20022;-58
2022/10/07 09:59:25;;;;;;;5.80;1.90;;;14.90;99.90;;;;;;5062620;28;20188;-58
2022/10/07 10:02:14;;;;;;;4.88;1.70;;;15.00;99.90;;;;;;5040583;27;20361;-55
2022/10/07 10:04:51;;;;;;;7.57;1.90;;;15.10;99.90;;;;;;5063567;28;20139;-57
2022/10/07 10:07:25;;;;;;;7.53;1.98;;;15.20;99.90;;;;;;5029069;27;20037;-57
2022/10/07 10:10:15;;;;;;;7.57;1.88;;;15.30;99.90;;;;;;5074791;27;20245;-58
2022/10/07 10:12:52;;;;;;;6.57;1.85;;;15.40;99.90;;;;;;5005985;28;20046;-55
2022/10/07 10:15:39;;;;;;;4.57;1.48;;;15.50;99.90;;;;;;5074974;28;20031;-56
2022/10/07 10:18:35;;;;;;;5.80;1.90;;;15.50;99.90;;;;;;5000179;28;20076;-52
2022/10/07 10:21:14;;;;;;;8.02;2.17;;;15.60;99.90;;;;;;5063696;28;20031;-55
2022/10/07 10:23:51;;;;;;;7.32;1.88;;;15.70;99.90;;;;;;5124342;27;20034;-58
2022/10/07 10:26:46;;;;;;;3.00;1.48;;;15.70;99.90;;;;;;5061038;28;20019;-56
2022/10/07 10:29:34;;;;;;;6.57;1.75;;;15.80;99.90;;;;;;5115855;27;20042;-59
2022/10/07 10:32:00;;;;;;;6.50;1.65;;;15.80;99.90;;;;;;5065184;27;20798;-55
2022/10/07 10:34:53;;;;;;;7.50;1.60;;;15.90;99.90;;;;;;5046161;28;20153;-58
2022/10/07 10:37:19;;;;;;;;;;;16.00;99.90;;;;;;5061304;28;20054;-56
2022/10/07 10:40:05;;;;;;;6.35;1.65;;;16.10;99.90;;;;;;5116603;27;19909;-56
2022/10/07 10:42:59;;;;;;;5.25;1.80;;;16.10;99.90;;;;;;5063408;28;20088;-59
2022/10/07 10:45:39;;;;;;;5.05;1.30;;;16.20;99.90;;;;;;5073046;27;20132;-61
2022/10/07 10:48:23;;;;;;;10.88;1.83;;;16.20;99.90;;;;;;5059639;28;20022;-58
2022/10/07 10:51:24;;;;;;;8.55;1.92;;;16.30;99.90;;;;;;5039656;27;20114;-55
2022/10/07 10:54:02;;;;;;;7.78;1.60;;;16.30;99.90;;;;;;5029377;28;20041;-56
2022/10/07 10:56:50;;;;;;;8.07;1.80;;;16.30;99.90;;;;;;5073561;27;20856;-54
2022/10/07 10:59:42;;;;;;;5.32;1.17;;;16.40;99.90;;;;;;5002020;28;20041;-57
2022/10/07 11:02:28;;;;;;;8.40;1.88;;;16.30;99.90;;;;;;5085323;27;20103;-58
2022/10/07 11:05:07;;;;;;;4.28;1.40;;;16.30;99.90;;;;;;5022231;28;20085;-57
2022/10/07 11:07:42;;;;;;;4.78;1.48;;;16.30;99.90;;;;;;5059443;27;20172;-56
2022/10/07 11:10:20;;;;;;;4.50;1.40;;;16.30;99.90;;;;;;5021799;28;20034;-59
2022/10/07 11:12:56;;;;;;;6.05;1.77;;;16.20;99.90;;;;;;5053475;27;20130;-55
2022/10/07 11:15:29;;;;;;;7.40;1.65;;;16.20;99.90;;;;;;5035751;27;20593;-59
2022/10/07 11:18:05;;;;;;;4.25;1.45;;;16.20;99.90;;;;;;5087062;27;20053;-62
2022/10/07 11:20:47;;;;;;;6.20;1.55;;;16.20;99.90;;;;;;5022337;28;20025;-59
2022/10/07 11:23:38;;;;;;;7.68;2.05;;;16.20;99.90;;;;;;5050127;27;20023;-58
2022/10/07 11:26:21;;;;;;;7.35;2.25;;;16.30;99.90;;;;;;5026339;27;20041;-58
2022/10/07 11:28:49;;;;;;;6.32;1.98;;;16.40;99.90;;;;;;5080488;27;20025;-57
2022/10/07 11:31:35;;;;;;;7.40;2.55;;;16.40;99.90;;;;;;5028999;27;20025;-56
2022/10/07 11:34:22;;;;;;;7.55;1.80;;;16.40;99.90;;;;;;5079898;27;20049;-54
2022/10/07 11:37:22;;;;;;;5.63;1.98;;;16.50;99.90;;;;;;5029837;27;20060;-56
2022/10/07 11:39:49;;;;;;;8.90;1.60;;;16.50;99.90;;;;;;5088160;27;20211;-55
2022/10/07 11:42:23;;;;;;;7.07;1.58;;;16.60;99.90;;;;;;5106901;27;20027;-55
2022/10/07 11:45:01;;;;;;;4.55;1.60;;;16.70;99.90;;;;;;5085301;27;20019;-56
2022/10/07 11:47:42;;;;;;;5.35;1.40;;;16.70;99.90;;;;;;5106166;27;20019;-55
2022/10/07 11:50:25;;;;;;;5.00;1.48;;;16.70;99.90;;;;;;5090293;27;20461;-52
2022/10/07 11:52:54;;;;;;;7.25;1.50;;;16.80;99.90;;;;;;5096954;27;20033;-54
2022/10/07 11:55:28;;;;;;;6.50;2.03;;;16.80;99.90;;;;;;5091711;27;20033;-56
2022/10/07 11:57:57;;;;;;;5.38;1.60;;;16.80;99.90;;;;;;5102643;27;20081;-54
2022/10/07 12:00:30;;;;;;;5.90;1.40;;;16.90;99.90;;;;;;5086208;27;20553;-58
2022/10/07 12:03:09;;;;;;;5.95;1.83;;;17.00;99.90;;;;;;5035767;27;20863;-58
2022/10/07 12:05:35;;;;;;;8.63;1.98;;;17.00;99.90;;;;;;5059396;27;20120;-52
2022/10/07 12:08:27;;;;;;;8.05;1.70;;;17.00;99.90;;;;;;5047127;27;20102;-55
2022/10/07 12:10:55;;;;;;;7.47;2.17;;;17.10;99.90;;;;;;5042000;27;20029;-50
2022/10/07 12:13:20;;;;;;;7.13;2.35;;;17.10;99.90;;;;;;5042480;27;20069;-55
2022/10/07 12:15:50;;;;;;;5.32;1.55;;;17.20;99.90;;;;;;5065622;27;20049;-57
2022/10/07 12:18:18;;;;;;;4.13;1.40;;;17.20;99.90;;;;;;5030394;27;20077;-54
2022/10/07 12:20:50;;;;;;;3.80;1.17;;;17.20;99.90;;;;;;5102256;27;20514;-57
2022/10/07 12:23:19;;;;;;;5.40;1.48;;;17.30;99.90;;;;;;5117042;27;20489;-57
2022/10/07 12:25:49;;;;;;;8.20;1.70;;;17.30;99.90;;;;;;5066912;27;20051;-58
2022/10/07 12:28:25;;;;;;;4.22;1.20;;;17.40;99.90;;;;;;5117637;27;20035;-56
2022/10/07 12:30:53;;;;;;;4.00;1.33;;;17.40;99.90;;;;;;5066227;27;20615;-56
2022/10/07 12:33:33;;;;;;;6.65;1.38;;;17.40;99.90;;;;;;5118194;27;20027;-55
2022/10/07 12:36:20;;;;;;;5.03;1.08;;;17.50;99.90;;;;;;5067174;27;20072;-57
2022/10/07 12:39:08;;;;;;;5.50;1.48;;;17.50;99.90;;;;;;5117647;27;20033;-58
2022/10/07 12:41:34;;;;;;;4.80;1.20;;;17.60;99.90;;;;;;5068372;27;20415;-56
2022/10/07 12:44:26;;;;;;;2.95;1.30;;;17.60;99.90;;;;;;5116966;27;20069;-55
2022/10/07 12:46:57;;;;;;;5.85;1.23;;;17.50;99.90;;;;;;5075497;27;20086;-54
2022/10/07 12:49:33;;;;;;;6.47;1.75;;;17.60;99.90;;;;;;5111044;27;20099;-53
2022/10/07 12:52:04;;;;;;;4.72;1.50;;;17.60;99.90;;;;;;5080077;27;20039;-58
2022/10/07 12:54:38;;;;;;;4.72;1.17;;;17.70;99.90;;;;;;5113444;27;20027;-57
2022/10/07 12:57:11;;;;;;;4.93;1.50;;;17.70;99.90;;;;;;5076603;27;20124;-57
2022/10/07 13:00:06;;;;;;;4.57;1.30;;;17.70;99.50;;;;;;5115649;27;20019;-54
2022/10/07 13:02:50;;;;;;;5.80;1.50;;;17.70;99.50;;;;;;5089271;27;20030;-56
2022/10/07 13:05:55;;;;;;;4.57;1.40;;;17.70;99.30;;;;;;5094952;27;20532;-50
2022/10/07 13:08:43;;;;;;;3.35;1.38;;;17.80;99.30;;;;;;5087390;27;20033;-57
2022/10/07 13:11:08;;;;;;;4.32;1.48;;;17.80;99.40;;;;;;5079639;27;20027;-54
2022/10/07 13:14:04;;;;;;;6.95;1.60;;;17.80;99.20;;;;;;5026282;27;20082;-57
2022/10/07 13:16:47;;;;;;;5.40;1.45;;;17.80;98.90;;;;;;5085381;27;20370;-57
2022/10/07 13:19:18;;;;;;;6.88;1.40;;;17.90;98.30;;;;;;5087700;27;20027;-54
2022/10/07 13:22:12;;;;;;;3.17;1.20;;;17.90;98.60;;;;;;5098587;27;20023;-61
2022/10/07 13:24:45;;;;;;;6.65;1.63;;;18.00;98.60;;;;;;5021280;28;20418;-60